Weather at Newark Liberty International Airport

Public forecast

Using degrees Fahrenheit for public forecast. Weather courtesy of forecast.io.

Current aviation weather report (METAR) for Newark Liberty International Airport

Retrieved 2021/10/22 04:51 UTC (13 minutes ago):

KEWR 220451Z 20011KT 10SM FEW130 SCT180 SCT250 19/12 A2979 RMK AO2 SLP088 T01890122 402610128

Aviation forecast (TAF) for Newark Liberty International Airport

Retrieved 2021-10-22 00:39 UTC (4 hours ago):

TAF KEWR 212336Z 2200/2306 19007KT P6SM SCT250 FM220400 21007KT P6SM BKN080 FM220900 25009KT P6SM SCT080 SCT250 FM221400 27009KT P6SM SCT035 SCT250 FM222200 31008KT P6SM BKN060 FM230000 33007KT P6SM BKN060